sensor_id;sensor_type;location;lat;lon;timestamp;temperature;humidity
57218;DHT22;43078;52.972;6.482;2023-08-21T00:01:18;20.80;94.50
57218;DHT22;43078;52.972;6.482;2023-08-21T00:03:44;20.80;94.70
57218;DHT22;43078;52.972;6.482;2023-08-21T00:06:10;20.70;94.70
57218;DHT22;43078;52.972;6.482;2023-08-21T00:08:36;20.60;94.80
57218;DHT22;43078;52.972;6.482;2023-08-21T00:11:02;20.50;94.80
57218;DHT22;43078;52.972;6.482;2023-08-21T00:13:27;20.50;94.90
57218;DHT22;43078;52.972;6.482;2023-08-21T00:15:53;20.40;95.00
57218;DHT22;43078;52.972;6.482;2023-08-21T00:18:20;20.30;95.00
57218;DHT22;43078;52.972;6.482;2023-08-21T00:20:46;20.30;95.10
57218;DHT22;43078;52.972;6.482;2023-08-21T00:23:12;20.20;95.00
57218;DHT22;43078;52.972;6.482;2023-08-21T00:25:37;20.20;95.10
57218;DHT22;43078;52.972;6.482;2023-08-21T00:28:03;20.10;95.20
57218;DHT22;43078;52.972;6.482;2023-08-21T00:30:29;20.10;95.20
57218;DHT22;43078;52.972;6.482;2023-08-21T00:32:54;20.00;95.30
57218;DHT22;43078;52.972;6.482;2023-08-21T00:35:20;20.00;95.30
57218;DHT22;43078;52.972;6.482;2023-08-21T00:37:46;19.90;95.40
57218;DHT22;43078;52.972;6.482;2023-08-21T00:40:12;19.80;95.40
57218;DHT22;43078;52.972;6.482;2023-08-21T00:42:38;19.80;95.40
57218;DHT22;43078;52.972;6.482;2023-08-21T00:45:04;19.80;95.40
57218;DHT22;43078;52.972;6.482;2023-08-21T00:47:30;19.70;95.50
57218;DHT22;43078;52.972;6.482;2023-08-21T00:49:56;19.70;95.60
57218;DHT22;43078;52.972;6.482;2023-08-21T00:52:22;19.60;95.60
57218;DHT22;43078;52.972;6.482;2023-08-21T00:54:48;19.60;95.60
57218;DHT22;43078;52.972;6.482;2023-08-21T00:57:15;19.60;95.70
57218;DHT22;43078;52.972;6.482;2023-08-21T00:59:44;19.60;95.70
57218;DHT22;43078;52.972;6.482;2023-08-21T01:02:10;19.50;95.70
57218;DHT22;43078;52.972;6.482;2023-08-21T01:04:39;19.50;95.80
57218;DHT22;43078;52.972;6.482;2023-08-21T01:07:06;19.40;95.80
57218;DHT22;43078;52.972;6.482;2023-08-21T01:10:01;19.40;96.20
57218;DHT22;43078;52.972;6.482;2023-08-21T01:12:50;19.30;95.40
57218;DHT22;43078;52.972;6.482;2023-08-21T01:15:22;19.30;95.60
57218;DHT22;43078;52.972;6.482;2023-08-21T01:17:49;19.20;95.90
57218;DHT22;43078;52.972;6.482;2023-08-21T01:20:15;19.20;96.00
57218;DHT22;43078;52.972;6.482;2023-08-21T01:22:42;19.10;96.00
57218;DHT22;43078;52.972;6.482;2023-08-21T01:25:12;19.10;96.00
57218;DHT22;43078;52.972;6.482;2023-08-21T01:27:42;19.10;96.10
57218;DHT22;43078;52.972;6.482;2023-08-21T01:30:09;19.10;96.10
57218;DHT22;43078;52.972;6.482;2023-08-21T01:32:59;19.00;96.10
57218;DHT22;43078;52.972;6.482;2023-08-21T01:35:26;18.90;96.10
57218;DHT22;43078;52.972;6.482;2023-08-21T01:37:53;18.90;96.20
57218;DHT22;43078;52.972;6.482;2023-08-21T01:40:23;18.80;96.20
57218;DHT22;43078;52.972;6.482;2023-08-21T01:42:49;18.80;96.20
57218;DHT22;43078;52.972;6.482;2023-08-21T01:45:14;18.70;96.30
57218;DHT22;43078;52.972;6.482;2023-08-21T01:47:40;18.70;96.30
57218;DHT22;43078;52.972;6.482;2023-08-21T01:50:06;18.70;96.30
57218;DHT22;43078;52.972;6.482;2023-08-21T01:52:32;18.60;96.20
57218;DHT22;43078;52.972;6.482;2023-08-21T01:54:58;18.60;96.40
57218;DHT22;43078;52.972;6.482;2023-08-21T01:57:24;18.60;96.30
57218;DHT22;43078;52.972;6.482;2023-08-21T01:59:49;18.50;96.40
57218;DHT22;43078;52.972;6.482;2023-08-21T02:02:15;18.50;96.30
57218;DHT22;43078;52.972;6.482;2023-08-21T02:04:40;18.50;96.30
57218;DHT22;43078;52.972;6.482;2023-08-21T02:07:06;18.40;96.20
57218;DHT22;43078;52.972;6.482;2023-08-21T02:09:33;18.40;96.30
57218;DHT22;43078;52.972;6.482;2023-08-21T02:11:58;18.40;96.40
57218;DHT22;43078;52.972;6.482;2023-08-21T02:14:28;18.40;96.40
57218;DHT22;43078;52.972;6.482;2023-08-21T02:16:53;18.30;96.30
57218;DHT22;43078;52.972;6.482;2023-08-21T02:19:19;18.30;96.40
57218;DHT22;43078;52.972;6.482;2023-08-21T02:21:45;18.30;96.40
57218;DHT22;43078;52.972;6.482;2023-08-21T02:24:10;18.20;96.40
57218;DHT22;43078;52.972;6.482;2023-08-21T02:26:36;18.20;96.40
57218;DHT22;43078;52.972;6.482;2023-08-21T02:29:01;18.20;96.40
57218;DHT22;43078;52.972;6.482;2023-08-21T02:31:29;18.10;96.40
57218;DHT22;43078;52.972;6.482;2023-08-21T02:33:54;18.10;96.30
57218;DHT22;43078;52.972;6.482;2023-08-21T02:36:20;18.00;96.30
57218;DHT22;43078;52.972;6.482;2023-08-21T02:38:45;17.90;96.30
57218;DHT22;43078;52.972;6.482;2023-08-21T02:41:11;17.90;96.40
57218;DHT22;43078;52.972;6.482;2023-08-21T02:43:37;17.90;96.30
57218;DHT22;43078;52.972;6.482;2023-08-21T02:46:02;17.80;96.20
57218;DHT22;43078;52.972;6.482;2023-08-21T02:48:28;17.70;95.90
57218;DHT22;43078;52.972;6.482;2023-08-21T02:50:54;17.70;95.80
57218;DHT22;43078;52.972;6.482;2023-08-21T02:53:19;17.60;95.70
57218;DHT22;43078;52.972;6.482;2023-08-21T02:55:45;17.60;95.70
57218;DHT22;43078;52.972;6.482;2023-08-21T02:58:11;17.50;96.00
57218;DHT22;43078;52.972;6.482;2023-08-21T03:00:37;17.50;96.20
57218;DHT22;43078;52.972;6.482;2023-08-21T03:03:03;17.50;96.40
57218;DHT22;43078;52.972;6.482;2023-08-21T03:05:29;17.40;96.60
57218;DHT22;43078;52.972;6.482;2023-08-21T03:07:55;17.40;96.60
57218;DHT22;43078;52.972;6.482;2023-08-21T03:10:21;17.30;96.70
57218;DHT22;43078;52.972;6.482;2023-08-21T03:12:49;17.40;96.60
57218;DHT22;43078;52.972;6.482;2023-08-21T03:15:14;17.30;96.80
57218;DHT22;43078;52.972;6.482;2023-08-21T03:17:40;17.30;96.80
57218;DHT22;43078;52.972;6.482;2023-08-21T03:20:07;17.30;96.80
57218;DHT22;43078;52.972;6.482;2023-08-21T03:22:32;17.20;96.70
57218;DHT22;43078;52.972;6.482;2023-08-21T03:24:58;17.20;96.70
57218;DHT22;43078;52.972;6.482;2023-08-21T03:27:24;17.20;96.70
57218;DHT22;43078;52.972;6.482;2023-08-21T03:29:49;17.20;97.00
57218;DHT22;43078;52.972;6.482;2023-08-21T03:32:16;17.20;96.90
57218;DHT22;43078;52.972;6.482;2023-08-21T03:34:42;17.10;96.80
57218;DHT22;43078;52.972;6.482;2023-08-21T03:37:08;17.10;96.80
57218;DHT22;43078;52.972;6.482;2023-08-21T03:39:34;17.00;97.10
57218;DHT22;43078;52.972;6.482;2023-08-21T03:41:59;17.00;97.20
57218;DHT22;43078;52.972;6.482;2023-08-21T03:44:25;17.00;97.00
57218;DHT22;43078;52.972;6.482;2023-08-21T03:46:50;17.00;97.20
57218;DHT22;43078;52.972;6.482;2023-08-21T03:49:16;16.90;97.20
57218;DHT22;43078;52.972;6.482;2023-08-21T03:51:42;16.90;97.30
57218;DHT22;43078;52.972;6.482;2023-08-21T03:54:08;16.90;97.10
57218;DHT22;43078;52.972;6.482;2023-08-21T03:56:34;16.90;97.20
57218;DHT22;43078;52.972;6.482;2023-08-21T03:58:59;16.80;97.20
57218;DHT22;43078;52.972;6.482;2023-08-21T04:01:25;16.80;97.10
57218;DHT22;43078;52.972;6.482;2023-08-21T04:03:51;16.80;97.20
57218;DHT22;43078;52.972;6.482;2023-08-21T04:06:16;16.70;97.00
57218;DHT22;43078;52.972;6.482;2023-08-21T04:08:42;16.70;97.10
57218;DHT22;43078;52.972;6.482;2023-08-21T04:11:08;16.70;97.20
57218;DHT22;43078;52.972;6.482;2023-08-21T04:13:33;16.60;97.00
57218;DHT22;43078;52.972;6.482;2023-08-21T04:15:59;16.60;97.10
57218;DHT22;43078;52.972;6.482;2023-08-21T04:18:24;16.60;97.20
57218;DHT22;43078;52.972;6.482;2023-08-21T04:20:50;16.60;97.30
57218;DHT22;43078;52.972;6.482;2023-08-21T04:23:16;16.60;97.40
57218;DHT22;43078;52.972;6.482;2023-08-21T04:25:41;16.60;97.30
57218;DHT22;43078;52.972;6.482;2023-08-21T04:28:08;16.50;97.30
57218;DHT22;43078;52.972;6.482;2023-08-21T04:30:34;16.50;97.10
57218;DHT22;43078;52.972;6.482;2023-08-21T04:33:00;16.50;97.10
57218;DHT22;43078;52.972;6.482;2023-08-21T04:35:26;16.40;97.00
57218;DHT22;43078;52.972;6.482;2023-08-21T04:37:51;16.40;96.90
57218;DHT22;43078;52.972;6.482;2023-08-21T04:40:17;16.40;97.20
57218;DHT22;43078;52.972;6.482;2023-08-21T04:42:45;16.40;97.10
57218;DHT22;43078;52.972;6.482;2023-08-21T04:45:11;16.40;97.30
57218;DHT22;43078;52.972;6.482;2023-08-21T04:47:36;16.30;97.20
57218;DHT22;43078;52.972;6.482;2023-08-21T04:50:02;16.30;97.10
57218;DHT22;43078;52.972;6.482;2023-08-21T04:52:28;16.30;97.00
57218;DHT22;43078;52.972;6.482;2023-08-21T04:54:54;16.20;97.20
57218;DHT22;43078;52.972;6.482;2023-08-21T04:57:20;16.20;97.00
57218;DHT22;43078;52.972;6.482;2023-08-21T04:59:48;16.10;96.80
57218;DHT22;43078;52.972;6.482;2023-08-21T05:02:14;16.10;97.00
57218;DHT22;43078;52.972;6.482;2023-08-21T05:04:39;16.10;97.20
57218;DHT22;43078;52.972;6.482;2023-08-21T05:07:05;16.10;97.40
57218;DHT22;43078;52.972;6.482;2023-08-21T05:09:32;16.10;97.10
57218;DHT22;43078;52.972;6.482;2023-08-21T05:11:58;16.00;96.90
57218;DHT22;43078;52.972;6.482;2023-08-21T05:14:23;16.00;97.10
57218;DHT22;43078;52.972;6.482;2023-08-21T05:16:49;16.00;97.20
57218;DHT22;43078;52.972;6.482;2023-08-21T05:19:16;16.00;97.30
57218;DHT22;43078;52.972;6.482;2023-08-21T05:21:42;15.90;97.50
57218;DHT22;43078;52.972;6.482;2023-08-21T05:24:08;15.90;97.60
57218;DHT22;43078;52.972;6.482;2023-08-21T05:26:35;15.90;97.50
57218;DHT22;43078;52.972;6.482;2023-08-21T05:29:01;15.90;97.50
57218;DHT22;43078;52.972;6.482;2023-08-21T05:31:27;15.90;97.60
57218;DHT22;43078;52.972;6.482;2023-08-21T05:33:53;15.90;97.70
57218;DHT22;43078;52.972;6.482;2023-08-21T05:36:18;15.90;97.60
57218;DHT22;43078;52.972;6.482;2023-08-21T05:38:44;15.80;97.40
57218;DHT22;43078;52.972;6.482;2023-08-21T05:41:10;15.80;97.50
57218;DHT22;43078;52.972;6.482;2023-08-21T05:43:35;15.80;97.50
57218;DHT22;43078;52.972;6.482;2023-08-21T05:46:01;15.80;97.50
57218;DHT22;43078;52.972;6.482;2023-08-21T05:48:27;15.80;97.50
57218;DHT22;43078;52.972;6.482;2023-08-21T05:50:54;15.80;97.50
57218;DHT22;43078;52.972;6.482;2023-08-21T05:53:19;15.80;97.60
57218;DHT22;43078;52.972;6.482;2023-08-21T05:55:45;15.80;97.60
57218;DHT22;43078;52.972;6.482;2023-08-21T05:58:10;15.80;97.50
57218;DHT22;43078;52.972;6.482;2023-08-21T06:00:38;15.80;97.50
57218;DHT22;43078;52.972;6.482;2023-08-21T06:03:04;15.80;97.20
57218;DHT22;43078;52.972;6.482;2023-08-21T06:05:30;15.80;97.10
57218;DHT22;43078;52.972;6.482;2023-08-21T06:07:56;15.80;97.20
57218;DHT22;43078;52.972;6.482;2023-08-21T06:10:22;15.80;97.20
57218;DHT22;43078;52.972;6.482;2023-08-21T06:12:48;15.80;97.30
57218;DHT22;43078;52.972;6.482;2023-08-21T06:15:14;15.80;97.20
57218;DHT22;43078;52.972;6.482;2023-08-21T06:17:40;15.80;97.10
57218;DHT22;43078;52.972;6.482;2023-08-21T06:20:07;15.80;97.10
57218;DHT22;43078;52.972;6.482;2023-08-21T06:22:36;15.80;97.20
57218;DHT22;43078;52.972;6.482;2023-08-21T06:25:02;15.90;97.10
57218;DHT22;43078;52.972;6.482;2023-08-21T06:27:28;15.90;97.10
57218;DHT22;43078;52.972;6.482;2023-08-21T06:29:53;15.90;97.30
57218;DHT22;43078;52.972;6.482;2023-08-21T06:32:19;16.00;97.20
57218;DHT22;43078;52.972;6.482;2023-08-21T06:34:45;16.00;97.30
57218;DHT22;43078;52.972;6.482;2023-08-21T06:37:10;16.10;97.20
57218;DHT22;43078;52.972;6.482;2023-08-21T06:39:38;16.10;97.30
57218;DHT22;43078;52.972;6.482;2023-08-21T06:42:04;16.10;97.40
57218;DHT22;43078;52.972;6.482;2023-08-21T06:44:29;16.20;97.40
57218;DHT22;43078;52.972;6.482;2023-08-21T06:46:55;16.30;97.60
57218;DHT22;43078;52.972;6.482;2023-08-21T06:49:20;16.30;97.60
57218;DHT22;43078;52.972;6.482;2023-08-21T06:51:46;16.40;97.60
57218;DHT22;43078;52.972;6.482;2023-08-21T06:54:11;16.50;97.80
57218;DHT22;43078;52.972;6.482;2023-08-21T06:56:37;16.50;98.00
57218;DHT22;43078;52.972;6.482;2023-08-21T06:59:03;16.60;98.40
57218;DHT22;43078;52.972;6.482;2023-08-21T07:01:28;16.70;99.10
57218;DHT22;43078;52.972;6.482;2023-08-21T07:03:54;16.70;99.00
57218;DHT22;43078;52.972;6.482;2023-08-21T07:06:20;16.90;98.90
57218;DHT22;43078;52.972;6.482;2023-08-21T07:08:46;17.00;99.60
57218;DHT22;43078;52.972;6.482;2023-08-21T07:11:11;17.10;99.20
57218;DHT22;43078;52.972;6.482;2023-08-21T07:13:38;17.20;98.60
57218;DHT22;43078;52.972;6.482;2023-08-21T07:16:07;17.20;98.50
57218;DHT22;43078;52.972;6.482;2023-08-21T07:18:35;17.30;98.40
57218;DHT22;43078;52.972;6.482;2023-08-21T07:21:03;17.40;99.30
57218;DHT22;43078;52.972;6.482;2023-08-21T07:23:32;17.50;98.90
57218;DHT22;43078;52.972;6.482;2023-08-21T07:25:59;17.60;99.30
57218;DHT22;43078;52.972;6.482;2023-08-21T07:28:25;17.70;99.80
57218;DHT22;43078;52.972;6.482;2023-08-21T07:30:55;17.80;99.90
57218;DHT22;43078;52.972;6.482;2023-08-21T07:33:24;17.90;99.90
57218;DHT22;43078;52.972;6.482;2023-08-21T07:36:05;18.10;99.90
57218;DHT22;43078;52.972;6.482;2023-08-21T07:38:32;18.20;99.90
57218;DHT22;43078;52.972;6.482;2023-08-21T07:41:08;18.20;99.90
57218;DHT22;43078;52.972;6.482;2023-08-21T07:43:36;18.40;99.90
57218;DHT22;43078;52.972;6.482;2023-08-21T07:46:06;18.50;99.50
57218;DHT22;43078;52.972;6.482;2023-08-21T07:48:32;18.60;99.00
57218;DHT22;43078;52.972;6.482;2023-08-21T07:50:58;18.70;99.20
57218;DHT22;43078;52.972;6.482;2023-08-21T07:53:27;18.80;99.30
57218;DHT22;43078;52.972;6.482;2023-08-21T07:55:52;18.90;99.50
57218;DHT22;43078;52.972;6.482;2023-08-21T07:58:19;19.00;99.20
57218;DHT22;43078;52.972;6.482;2023-08-21T08:00:45;19.10;98.70
57218;DHT22;43078;52.972;6.482;2023-08-21T08:03:12;19.20;98.70
57218;DHT22;43078;52.972;6.482;2023-08-21T08:05:43;19.30;98.90
57218;DHT22;43078;52.972;6.482;2023-08-21T08:08:09;19.40;98.70
57218;DHT22;43078;52.972;6.482;2023-08-21T08:10:41;19.50;98.50
57218;DHT22;43078;52.972;6.482;2023-08-21T08:13:08;19.60;98.20
57218;DHT22;43078;52.972;6.482;2023-08-21T08:15:34;19.70;98.10
57218;DHT22;43078;52.972;6.482;2023-08-21T08:18:01;19.80;97.90
57218;DHT22;43078;52.972;6.482;2023-08-21T08:20:27;20.00;98.00
57218;DHT22;43078;52.972;6.482;2023-08-21T08:22:53;20.10;98.00
57218;DHT22;43078;52.972;6.482;2023-08-21T08:25:19;20.10;97.70
57218;DHT22;43078;52.972;6.482;2023-08-21T08:27:44;20.30;97.50
57218;DHT22;43078;52.972;6.482;2023-08-21T08:30:10;20.40;96.90
57218;DHT22;43078;52.972;6.482;2023-08-21T08:32:36;20.50;97.00
57218;DHT22;43078;52.972;6.482;2023-08-21T08:35:02;20.60;96.50
57218;DHT22;43078;52.972;6.482;2023-08-21T08:37:28;20.70;96.20
57218;DHT22;43078;52.972;6.482;2023-08-21T08:39:53;20.80;95.60
57218;DHT22;43078;52.972;6.482;2023-08-21T08:42:19;20.80;95.60
57218;DHT22;43078;52.972;6.482;2023-08-21T08:44:44;20.90;95.10
57218;DHT22;43078;52.972;6.482;2023-08-21T08:47:11;21.00;95.10
57218;DHT22;43078;52.972;6.482;2023-08-21T08:49:40;21.10;95.00
57218;DHT22;43078;52.972;6.482;2023-08-21T08:52:05;21.20;94.90
57218;DHT22;43078;52.972;6.482;2023-08-21T08:54:32;21.30;95.00
57218;DHT22;43078;52.972;6.482;2023-08-21T08:56:58;21.40;95.00
57218;DHT22;43078;52.972;6.482;2023-08-21T08:59:24;21.50;94.80
57218;DHT22;43078;52.972;6.482;2023-08-21T09:01:51;21.60;94.50
57218;DHT22;43078;52.972;6.482;2023-08-21T09:04:17;21.70;94.10
57218;DHT22;43078;52.972;6.482;2023-08-21T09:06:42;21.70;93.50
57218;DHT22;43078;52.972;6.482;2023-08-21T09:09:12;21.80;93.40
57218;DHT22;43078;52.972;6.482;2023-08-21T09:11:43;21.90;93.70
57218;DHT22;43078;52.972;6.482;2023-08-21T09:14:10;22.00;93.60
57218;DHT22;43078;52.972;6.482;2023-08-21T09:16:35;22.10;93.30
57218;DHT22;43078;52.972;6.482;2023-08-21T09:19:01;22.20;92.80
57218;DHT22;43078;52.972;6.482;2023-08-21T09:21:28;22.20;92.50
57218;DHT22;43078;52.972;6.482;2023-08-21T09:24:01;22.30;92.10
57218;DHT22;43078;52.972;6.482;2023-08-21T09:26:31;22.40;91.80
57218;DHT22;43078;52.972;6.482;2023-08-21T09:29:04;22.50;92.40
57218;DHT22;43078;52.972;6.482;2023-08-21T09:31:31;22.50;92.70
57218;DHT22;43078;52.972;6.482;2023-08-21T09:34:02;22.60;92.60
57218;DHT22;43078;52.972;6.482;2023-08-21T09:36:34;22.70;92.60
57218;DHT22;43078;52.972;6.482;2023-08-21T09:39:03;22.80;92.20
57218;DHT22;43078;52.972;6.482;2023-08-21T09:41:31;22.90;92.10
57218;DHT22;43078;52.972;6.482;2023-08-21T09:44:03;23.00;92.20
57218;DHT22;43078;52.972;6.482;2023-08-21T09:46:32;23.00;91.20
57218;DHT22;43078;52.972;6.482;2023-08-21T09:48:59;23.10;90.90
57218;DHT22;43078;52.972;6.482;2023-08-21T09:51:29;23.20;90.70
57218;DHT22;43078;52.972;6.482;2023-08-21T09:53:58;23.30;89.60
57218;DHT22;43078;52.972;6.482;2023-08-21T09:56:28;23.30;89.00
57218;DHT22;43078;52.972;6.482;2023-08-21T09:58:54;23.40;87.70
57218;DHT22;43078;52.972;6.482;2023-08-21T10:01:20;23.50;90.60
57218;DHT22;43078;52.972;6.482;2023-08-21T10:03:46;23.60;90.20
57218;DHT22;43078;52.972;6.482;2023-08-21T10:06:16;23.60;90.50
57218;DHT22;43078;52.972;6.482;2023-08-21T10:08:48;23.70;89.00
57218;DHT22;43078;52.972;6.482;2023-08-21T10:11:20;23.80;90.70
57218;DHT22;43078;52.972;6.482;2023-08-21T10:13:46;23.90;91.10
57218;DHT22;43078;52.972;6.482;2023-08-21T10:16:15;24.00;91.50
57218;DHT22;43078;52.972;6.482;2023-08-21T10:18:44;24.10;91.50
57218;DHT22;43078;52.972;6.482;2023-08-21T10:21:21;24.10;89.60
57218;DHT22;43078;52.972;6.482;2023-08-21T10:23:51;24.20;89.80
57218;DHT22;43078;52.972;6.482;2023-08-21T10:26:26;24.30;90.60
57218;DHT22;43078;52.972;6.482;2023-08-21T10:28:59;24.40;90.30
57218;DHT22;43078;52.972;6.482;2023-08-21T10:34:10;24.50;86.20
57218;DHT22;43078;52.972;6.482;2023-08-21T10:39:23;24.70;85.60
57218;DHT22;43078;52.972;6.482;2023-08-21T10:42:01;24.70;85.20
57218;DHT22;43078;52.972;6.482;2023-08-21T10:49:56;24.90;86.80
57218;DHT22;43078;52.972;6.482;2023-08-21T10:52:38;24.90;88.00
57218;DHT22;43078;52.972;6.482;2023-08-21T10:55:05;25.00;85.20
57218;DHT22;43078;52.972;6.482;2023-08-21T10:57:32;25.10;85.00
57218;DHT22;43078;52.972;6.482;2023-08-21T11:00:06;25.20;86.30
57218;DHT22;43078;52.972;6.482;2023-08-21T11:02:38;25.20;90.00
57218;DHT22;43078;52.972;6.482;2023-08-21T11:05:08;25.30;87.70
57218;DHT22;43078;52.972;6.482;2023-08-21T11:07:48;25.40;89.60
57218;DHT22;43078;52.972;6.482;2023-08-21T11:10:32;25.40;88.70
57218;DHT22;43078;52.972;6.482;2023-08-21T11:12:58;25.50;85.70
57218;DHT22;43078;52.972;6.482;2023-08-21T11:15:29;25.60;84.80
57218;DHT22;43078;52.972;6.482;2023-08-21T11:17:55;25.60;82.30
57218;DHT22;43078;52.972;6.482;2023-08-21T11:20:32;25.70;83.60
57218;DHT22;43078;52.972;6.482;2023-08-21T11:23:03;25.80;85.90
57218;DHT22;43078;52.972;6.482;2023-08-21T11:25:32;25.80;89.50
57218;DHT22;43078;52.972;6.482;2023-08-21T11:27:58;25.90;87.00
57218;DHT22;43078;52.972;6.482;2023-08-21T11:30:24;26.00;90.00
57218;DHT22;43078;52.972;6.482;2023-08-21T11:33:11;26.00;89.10
57218;DHT22;43078;52.972;6.482;2023-08-21T11:35:38;26.10;90.00
57218;DHT22;43078;52.972;6.482;2023-08-21T11:38:04;26.20;86.00
57218;DHT22;43078;52.972;6.482;2023-08-21T11:40:30;26.30;88.50
57218;DHT22;43078;52.972;6.482;2023-08-21T11:43:05;26.40;90.50
57218;DHT22;43078;52.972;6.482;2023-08-21T11:45:32;26.40;91.30
57218;DHT22;43078;52.972;6.482;2023-08-21T11:47:58;26.50;90.00
57218;DHT22;43078;52.972;6.482;2023-08-21T11:50:26;26.50;90.40
57218;DHT22;43078;52.972;6.482;2023-08-21T11:52:55;26.50;86.60
57218;DHT22;43078;52.972;6.482;2023-08-21T11:55:24;26.60;87.40
57218;DHT22;43078;52.972;6.482;2023-08-21T11:57:51;26.60;83.40
57218;DHT22;43078;52.972;6.482;2023-08-21T12:00:18;26.60;87.60
57218;DHT22;43078;52.972;6.482;2023-08-21T12:02:57;26.70;90.30
57218;DHT22;43078;52.972;6.482;2023-08-21T12:05:23;26.70;85.30
57218;DHT22;43078;52.972;6.482;2023-08-21T12:07:52;26.80;86.10
57218;DHT22;43078;52.972;6.482;2023-08-21T12:10:29;26.90;90.00
57218;DHT22;43078;52.972;6.482;2023-08-21T12:12:56;26.90;88.00
57218;DHT22;43078;52.972;6.482;2023-08-21T12:15:22;26.90;85.30
57218;DHT22;43078;52.972;6.482;2023-08-21T12:17:47;26.90;84.60
57218;DHT22;43078;52.972;6.482;2023-08-21T12:20:13;27.00;89.20
57218;DHT22;43078;52.972;6.482;2023-08-21T12:22:40;27.00;90.40
57218;DHT22;43078;52.972;6.482;2023-08-21T12:25:06;27.10;90.90
57218;DHT22;43078;52.972;6.482;2023-08-21T12:27:32;27.10;84.70
57218;DHT22;43078;52.972;6.482;2023-08-21T12:29:58;27.10;89.30
57218;DHT22;43078;52.972;6.482;2023-08-21T12:32:24;27.10;84.30
57218;DHT22;43078;52.972;6.482;2023-08-21T12:34:50;27.10;88.30
57218;DHT22;43078;52.972;6.482;2023-08-21T12:37:15;27.20;89.60
57218;DHT22;43078;52.972;6.482;2023-08-21T12:39:41;27.10;83.20
57218;DHT22;43078;52.972;6.482;2023-08-21T12:42:07;27.20;84.60
57218;DHT22;43078;52.972;6.482;2023-08-21T12:44:33;27.20;79.70
57218;DHT22;43078;52.972;6.482;2023-08-21T12:46:59;27.20;79.60
57218;DHT22;43078;52.972;6.482;2023-08-21T12:49:26;27.20;83.60
57218;DHT22;43078;52.972;6.482;2023-08-21T12:51:52;27.30;80.60
57218;DHT22;43078;52.972;6.482;2023-08-21T12:54:18;27.30;75.70
57218;DHT22;43078;52.972;6.482;2023-08-21T12:56:46;27.30;84.50
57218;DHT22;43078;52.972;6.482;2023-08-21T12:59:15;27.40;83.90
57218;DHT22;43078;52.972;6.482;2023-08-21T13:01:44;27.40;86.00
57218;DHT22;43078;52.972;6.482;2023-08-21T13:04:09;27.40;80.80
57218;DHT22;43078;52.972;6.482;2023-08-21T13:06:35;27.50;79.60
57218;DHT22;43078;52.972;6.482;2023-08-21T13:09:04;27.50;82.30
57218;DHT22;43078;52.972;6.482;2023-08-21T13:11:31;27.50;84.80
57218;DHT22;43078;52.972;6.482;2023-08-21T13:13:57;27.60;83.80
57218;DHT22;43078;52.972;6.482;2023-08-21T13:16:23;27.60;86.70
57218;DHT22;43078;52.972;6.482;2023-08-21T13:18:51;27.70;80.70
57218;DHT22;43078;52.972;6.482;2023-08-21T13:21:17;27.60;77.10
57218;DHT22;43078;52.972;6.482;2023-08-21T13:23:45;27.60;75.50
57218;DHT22;43078;52.972;6.482;2023-08-21T13:26:11;27.60;81.90
57218;DHT22;43078;52.972;6.482;2023-08-21T13:28:36;27.60;84.20
57218;DHT22;43078;52.972;6.482;2023-08-21T13:31:05;27.70;86.30
57218;DHT22;43078;52.972;6.482;2023-08-21T13:33:32;27.70;85.90
57218;DHT22;43078;52.972;6.482;2023-08-21T13:36:01;27.70;87.40
57218;DHT22;43078;52.972;6.482;2023-08-21T13:38:27;27.70;87.10
57218;DHT22;43078;52.972;6.482;2023-08-21T13:40:52;27.70;82.20
57218;DHT22;43078;52.972;6.482;2023-08-21T13:43:20;27.70;74.90
57218;DHT22;43078;52.972;6.482;2023-08-21T13:45:46;27.70;79.10
57218;DHT22;43078;52.972;6.482;2023-08-21T13:48:12;27.80;83.60
57218;DHT22;43078;52.972;6.482;2023-08-21T13:50:38;27.80;79.00
57218;DHT22;43078;52.972;6.482;2023-08-21T13:53:04;27.80;83.40
57218;DHT22;43078;52.972;6.482;2023-08-21T13:55:29;27.80;81.30
57218;DHT22;43078;52.972;6.482;2023-08-21T13:57:55;27.90;82.00
57218;DHT22;43078;52.972;6.482;2023-08-21T14:00:20;27.90;83.30
57218;DHT22;43078;52.972;6.482;2023-08-21T14:02:50;27.90;81.30
57218;DHT22;43078;52.972;6.482;2023-08-21T14:05:16;28.00;86.10
57218;DHT22;43078;52.972;6.482;2023-08-21T14:07:43;28.00;75.80
57218;DHT22;43078;52.972;6.482;2023-08-21T14:10:08;28.10;76.10
57218;DHT22;43078;52.972;6.482;2023-08-21T14:12:35;28.10;81.00
57218;DHT22;43078;52.972;6.482;2023-08-21T14:15:00;28.20;85.10
57218;DHT22;43078;52.972;6.482;2023-08-21T14:17:27;28.20;80.40
57218;DHT22;43078;52.972;6.482;2023-08-21T14:19:53;28.30;84.90
57218;DHT22;43078;52.972;6.482;2023-08-21T14:22:21;28.30;85.30
57218;DHT22;43078;52.972;6.482;2023-08-21T14:24:53;28.30;82.30
57218;DHT22;43078;52.972;6.482;2023-08-21T14:27:18;28.30;84.50
57218;DHT22;43078;52.972;6.482;2023-08-21T14:29:47;28.40;87.50
57218;DHT22;43078;52.972;6.482;2023-08-21T14:32:16;28.30;76.30
57218;DHT22;43078;52.972;6.482;2023-08-21T14:34:42;28.30;80.30
57218;DHT22;43078;52.972;6.482;2023-08-21T14:37:13;28.30;76.90
57218;DHT22;43078;52.972;6.482;2023-08-21T14:39:44;28.30;83.70
57218;DHT22;43078;52.972;6.482;2023-08-21T14:42:09;28.40;82.60
57218;DHT22;43078;52.972;6.482;2023-08-21T14:44:36;28.40;83.90
57218;DHT22;43078;52.972;6.482;2023-08-21T14:47:01;28.50;77.50
57218;DHT22;43078;52.972;6.482;2023-08-21T14:49:30;28.40;77.60
57218;DHT22;43078;52.972;6.482;2023-08-21T14:51:56;28.30;80.40
57218;DHT22;43078;52.972;6.482;2023-08-21T14:54:24;28.40;83.70
57218;DHT22;43078;52.972;6.482;2023-08-21T14:56:51;28.40;81.40
57218;DHT22;43078;52.972;6.482;2023-08-21T14:59:17;28.40;75.40
57218;DHT22;43078;52.972;6.482;2023-08-21T15:01:42;28.40;85.00
57218;DHT22;43078;52.972;6.482;2023-08-21T15:04:09;28.50;89.30
57218;DHT22;43078;52.972;6.482;2023-08-21T15:06:36;28.50;86.00
57218;DHT22;43078;52.972;6.482;2023-08-21T15:09:06;28.60;85.50
57218;DHT22;43078;52.972;6.482;2023-08-21T15:11:32;28.60;83.20
57218;DHT22;43078;52.972;6.482;2023-08-21T15:14:00;28.60;83.80
57218;DHT22;43078;52.972;6.482;2023-08-21T15:16:26;28.70;83.90
57218;DHT22;43078;52.972;6.482;2023-08-21T15:18:52;28.60;81.50
57218;DHT22;43078;52.972;6.482;2023-08-21T15:21:18;28.60;84.60
57218;DHT22;43078;52.972;6.482;2023-08-21T15:23:45;28.60;90.40
57218;DHT22;43078;52.972;6.482;2023-08-21T15:26:11;28.70;88.90
57218;DHT22;43078;52.972;6.482;2023-08-21T15:28:36;28.70;90.80
57218;DHT22;43078;52.972;6.482;2023-08-21T15:31:02;28.80;92.10
57218;DHT22;43078;52.972;6.482;2023-08-21T15:33:28;28.90;92.70
57218;DHT22;43078;52.972;6.482;2023-08-21T15:35:54;28.90;90.80
57218;DHT22;43078;52.972;6.482;2023-08-21T15:38:20;28.90;92.00
57218;DHT22;43078;52.972;6.482;2023-08-21T15:40:45;29.00;93.40